Latest Weather Observations for Coonabarabran Airport

IDN60801

Issued at 11:02 pm EDT Tuesday 28 February 2017 (issued every 30 minutes, with the page automatically refreshed every 10 minutes)

About weather observations | Map of weather stations | Latest weather observations for NSW | Other Formats
Station Details ID: 064017 Name: COONABARABRAN AIRPORT AWS Lat: -31.33 Lon: 149.27 Height: 645.0 m
Data from the previous 72 hours. | See also: Recent months at Coonabarabran Airport
Date/Time
EDT
Temp
°C
App
Temp
°C
Dew
Point
°C
Rel
Hum
%
Delta-T
°C
Wind Press
QNH
hPa
Press
MSL
hPa
Rain since
9am
mm
Dir  Spd
km/h
Gust
km/h
Spd
kts
Gust
kts
28/11:00pm 17.6 17.4 15.8 89 1.1 SE 11 15 6 8 1021.4 1017.6 3.0
28/10:30pm 17.8 17.3 15.8 88 1.2 SSE 13 17 7 9 1021.3 1017.5 3.0
28/10:00pm 18.3 17.0 15.9 86 1.5 SE 17 20 9 11 1021.2 1017.4 3.0
28/09:30pm 18.1 17.5 15.7 86 1.5 SSE 13 15 7 8 1021.0 1017.2 3.0
28/09:00pm 18.4 17.8 15.6 84 1.7 SSE 13 17 7 9 1020.9 1017.1 3.0
28/08:30pm 18.3 17.8 15.9 86 1.5 SSE 13 15 7 8 1020.8 1017.0 3.0
28/08:00pm 18.9 18.1 15.2 79 2.2 SE 13 19 7 10 1020.6 1016.9 3.0
28/07:30pm 18.9 18.6 15.4 80 2.1 ESE 11 15 6 8 1020.3 1016.6 3.0
28/07:00pm 18.5 18.1 16.1 86 1.5 E 13 15 7 8 1020.1 1016.4 2.8
28/06:30pm 18.3 17.2 16.3 88 1.2 E 17 20 9 11 1020.3 1016.6 2.2
28/06:00pm 18.7 16.1 16.9 89 1.1 E 26 33 14 18 1020.1 1016.4 0.8
28/05:47pm 19.7 16.6 16.5 82 2.0 E 28 43 15 23 1020.1 1016.4 0.6
28/05:30pm 21.2 22.0 17.2 78 2.5 NNE 9 13 5 7 1019.6 1015.8 0.6
28/05:00pm 19.2 17.6 16.6 85 1.6 NE 20 30 11 16 1019.8 1016.0 0.4
28/04:30pm 22.4 20.3 13.7 58 5.2 E 17 35 9 19 1019.3 1015.5 0.0
28/04:00pm 24.9 20.8 12.8 47 7.2 SSE 26 33 14 18 1019.3 1015.5 0.0
28/03:30pm 26.6 21.8 13.0 43 8.2 SSE 30 39 16 21 1019.4 1015.6 0.0
28/03:00pm 26.5 23.8 10.2 36 9.3 ESE 15 26 8 14 1019.4 1015.6 0.0
28/02:30pm 27.8 24.6 10.1 33 10.2 NE 17 33 9 18 1019.6 1015.8 0.0
28/02:00pm 27.5 23.8 10.2 34 10.0 ENE 20 30 11 16 1020.0 1016.2 0.0
28/01:30pm 25.4 23.0 10.1 38 8.7 ENE 13 22 7 12 1020.5 1016.8 0.0
28/01:00pm 26.1 23.7 9.9 36 9.2 E 13 28 7 15 1020.9 1017.1 0.0
28/12:30pm 25.8 22.3 10.8 39 8.7 NE 20 30 11 16 1021.3 1017.5 0.0
28/12:00pm 25.0 21.7 10.8 41 8.2 ENE 19 28 10 15 1021.7 1018.0 0.0
28/11:30am 25.0 22.2 11.2 42 8.0 E 17 30 9 16 1022.0 1018.3 0.0
28/11:00am 23.7 21.1 12.0 48 6.8 ENE 17 24 9 13 1022.2 1018.5 0.0
28/10:30am 22.6 19.5 12.3 52 6.0 E 20 30 11 16 1022.5 1018.7 0.0
28/10:00am 21.8 18.4 12.6 56 5.4 E 22 37 12 20 1022.5 1018.7 0.0
28/09:30am 19.8 17.0 13.3 66 3.8 E 20 30 11 16 1022.5 1018.7 0.0
28/09:00am 19.3 16.9 13.7 70 3.3 E 19 26 10 14 1022.3 1018.6 0.0
28/08:30am 17.9 16.6 13.8 77 2.4 ESE 13 20 7 11 1022.1 1018.4 0.0
28/08:00am 16.3 15.9 14.0 86 1.3 SSE 9 13 5 7 1021.9 1018.2 0.0
28/07:30am 15.2 14.6 13.6 90 0.9 SSW 9 13 5 7 1021.7 1018.0 0.0
28/07:00am 15.0 14.0 13.4 90 0.9 SE 11 15 6 8 1021.3 1017.5 0.0
28/06:30am 14.9 14.2 13.1 89 1.0 SW 9 11 5 6 1021.1 1017.3 0.0
28/06:00am 15.6 14.6 13.3 86 1.3 ESE 11 15 6 8 1021.0 1017.2 0.0
28/05:30am 15.4 13.9 13.2 87 1.3 SE 13 15 7 8 1020.9 1017.1 0.0
28/05:00am 15.2 14.1 13.2 88 1.1 SE 11 13 6 7 1020.9 1017.1 0.0
28/04:30am 15.2 14.0 12.7 85 1.4 SSE 11 17 6 9 1020.8 1017.0 0.0
28/04:00am 15.5 13.8 12.3 81 1.8 S 13 15 7 8 1020.8 1017.0 0.0
28/03:30am 15.9 13.7 12.1 78 2.1 SSE 15 17 8 9 1021.0 1017.2 0.0
28/03:00am 15.9 14.6 11.1 73 2.6 S 9 13 5 7 1021.1 1017.3 0.0
28/02:30am 15.8 13.5 10.6 71 2.8 SSE 13 13 7 7 1021.2 1017.4 0.0
28/02:00am 16.5 14.1 10.1 66 3.5 SE 13 15 7 8 1021.6 1017.9 0.0
28/01:30am 16.8 13.9 9.5 62 3.9 SE 15 19 8 10 1022.0 1018.3 0.0
28/01:00am 16.3 14.1 9.5 64 3.6 SSE 11 15 6 8 1022.2 1018.5 0.0
28/12:30am 17.2 15.1 9.6 61 4.1 SE 11 17 6 9 1022.3 1018.6 0.0
28/12:00am 17.4 15.3 9.8 61 4.1 SE 11 15 6 8 1022.3 1018.6 0.0
 
Date/Time
EDT
Temp
°C
App
Temp
°C
Dew
Point
°C
Rel
Hum
%
Delta-T
°C
Wind Press
QNH
hPa
Press
MSL
hPa
Rain since
9am
mm
Dir  Spd
km/h
Gust
km/h
Spd
kts
Gust
kts
27/11:30pm 17.7 15.6 9.8 60 4.3 ESE 11 13 6 7 1022.6 1018.8 0.0
27/11:00pm 18.4 16.0 10.0 58 4.6 SE 13 17 7 9 1022.5 1018.7 0.0
27/10:30pm 18.6 16.3 9.1 54 5.1 SE 11 15 6 8 1022.6 1018.8 0.0
27/10:00pm 19.5 16.5 9.1 51 5.6 SE 15 19 8 10 1022.3 1018.6 0.0
27/09:30pm 20.3 17.2 8.9 48 6.2 SE 15 20 8 11 1022.0 1018.3 0.0
27/09:00pm 20.9 18.2 8.9 46 6.5 SE 13 17 7 9 1021.6 1017.9 0.0
27/08:30pm 22.2 18.8 9.0 43 7.3 ESE 17 22 9 12 1021.2 1017.4 0.0
27/08:00pm 22.6 19.3 9.4 43 7.3 ESE 17 20 9 11 1020.8 1017.0 0.0
27/07:30pm 23.7 20.4 9.7 41 7.9 ESE 17 26 9 14 1020.3 1016.6 0.0
27/07:00pm 24.5 19.7 8.9 37 8.7 E 24 37 13 20 1020.0 1016.2 0.0
27/06:30pm 25.0 21.7 9.7 38 8.6 ESE 17 24 9 13 1019.8 1016.0 0.0
27/06:00pm 25.6 21.1 8.6 34 9.4 E 22 30 12 16 1019.6 1015.8 0.0
27/05:30pm 27.0 23.2 8.9 32 10.2 SE 19 26 10 14 1019.6 1015.8 0.0
27/05:00pm 27.5 23.6 9.3 32 10.3 E 20 30 11 16 1019.5 1015.7 0.0
27/04:30pm 25.7 21.2 9.9 37 9.0 SE 24 35 13 19 1019.7 1015.9 0.0
27/04:00pm 26.5 22.0 10.2 36 9.3 E 24 35 13 19 1019.6 1015.8 0.0
27/03:30pm 26.9 22.7 9.7 34 9.8 ESE 22 39 12 21 1019.9 1016.1 0.0
27/03:00pm 28.4 24.2 11.0 34 10.2 ESE 24 39 13 21 1020.2 1016.5 0.0
27/02:30pm 27.4 22.4 11.0 36 9.6 ESE 28 39 15 21 1020.8 1017.0 0.0
27/02:00pm 26.4 22.5 10.9 38 9.0 E 22 33 12 18 1021.0 1017.2 0.0
27/01:30pm 24.9 21.5 10.4 40 8.3 E 19 32 10 17 1021.3 1017.5 0.0
27/01:00pm 24.9 21.7 11.1 42 8.0 E 19 32 10 17 1021.7 1018.0 0.0
27/12:30pm 25.4 21.5 10.8 40 8.4 E 22 32 12 17 1022.1 1018.4 0.0
27/12:00pm 25.3 22.1 11.8 43 7.9 E 20 32 11 17 1022.6 1018.8 0.0
27/11:30am 24.4 21.4 12.0 46 7.3 E 19 30 10 16 1022.9 1019.2 0.0
27/11:00am 24.0 20.5 12.3 48 6.9 E 22 33 12 18 1022.9 1019.2 0.0
27/10:30am 22.8 19.6 11.8 50 6.4 E 20 28 11 15 1023.2 1019.5 0.0
27/10:00am 20.7 17.5 11.9 57 5.0 ESE 20 30 11 16 1023.3 1019.6 0.0
27/09:30am 19.5 16.5 11.8 61 4.4 ESE 19 26 10 14 1023.3 1019.6 0.0
27/09:00am 18.6 16.3 11.9 65 3.8 ESE 15 20 8 11 1023.2 1019.5 0.0
27/08:30am 17.4 14.9 12.3 72 2.9 ESE 17 24 9 13 1023.0 1019.3 0.0
27/08:00am 16.1 14.0 12.5 79 2.0 ESE 15 20 8 11 1022.8 1019.0 0.0
27/07:30am 15.0 13.3 12.5 85 1.4 ESE 13 19 7 10 1022.6 1018.8 0.0
27/07:00am 13.6 12.6 12.2 91 0.8 ESE 9 15 5 8 1022.2 1018.5 0.0
27/06:30am 13.4 11.8 11.6 89 1.0 ESE 11 13 6 7 1021.8 1018.1 0.0
27/06:00am 13.7 12.5 11.6 87 1.2 E 9 13 5 7 1021.6 1017.9 0.0
27/05:30am 13.8 12.2 11.5 86 1.3 SE 11 13 6 7 1021.2 1017.4 0.0
27/05:00am 14.1 12.5 11.6 85 1.4 ESE 11 15 6 8 1021.1 1017.3 0.0
27/04:30am 14.5 12.2 11.8 84 1.5 SE 15 19 8 10 1021.0 1017.2 0.0
27/04:00am 14.5 12.5 11.5 82 1.7 ESE 13 19 7 10 1021.1 1017.3 0.0
27/03:30am 15.0 12.0 11.8 81 1.8 ESE 19 24 10 13 1021.4 1017.6 0.0
27/03:00am 14.8 12.5 11.6 81 1.8 ESE 15 19 8 10 1021.7 1018.0 0.0
27/02:30am 14.9 12.5 11.3 79 2.0 E 15 20 8 11 1021.7 1018.0 0.0
27/02:00am 15.4 11.9 11.0 75 2.4 E 20 28 11 15 1021.6 1017.9 0.0
27/01:30am 15.4 12.5 11.0 75 2.4 E 17 24 9 13 1021.8 1018.1 0.0
27/01:00am 15.3 13.2 11.3 77 2.2 ENE 13 17 7 9 1022.1 1018.4 0.0
27/12:30am 15.8 13.8 11.4 75 2.4 ENE 13 19 7 10 1022.0 1018.3 0.0
27/12:00am 16.2 13.7 11.2 72 2.8 E 15 20 8 11 1021.8 1018.1 0.0
 
Date/Time
EDT
Temp
°C
App
Temp
°C
Dew
Point
°C
Rel
Hum
%
Delta-T
°C
Wind Press
QNH
hPa
Press
MSL
hPa
Rain since
9am
mm
Dir  Spd
km/h
Gust
km/h
Spd
kts
Gust
kts
26/11:30pm 17.1 14.6 10.9 67 3.4 E 15 20 8 11 1021.8 1018.1 0.0
26/11:00pm 17.7 15.6 11.0 65 3.7 ESE 13 20 7 11 1021.7 1018.0 0.0
26/10:30pm 17.9 16.1 10.8 63 3.9 ESE 11 17 6 9 1021.6 1017.9 0.0
26/10:00pm 18.7 15.7 10.8 60 4.4 ESE 17 26 9 14 1021.3 1017.5 0.0
26/09:30pm 19.6 16.3 10.9 57 4.9 ESE 19 28 10 15 1021.1 1017.3 0.0
26/09:00pm 20.0 16.5 11.0 56 5.1 E 20 26 11 14 1020.6 1016.9 0.0
26/08:30pm 21.1 17.0 11.4 54 5.5 E 24 32 13 17 1020.0 1016.2 0.0
26/08:00pm 22.2 17.3 11.3 50 6.2 E 28 43 15 23 1019.6 1015.8 0.0
26/07:30pm 23.5 20.7 11.2 46 7.1 SE 17 26 9 14 1019.0 1015.3 0.0
26/07:00pm 24.4 19.7 10.7 42 7.8 SE 26 35 14 19 1018.5 1014.7 0.0
26/06:30pm 25.8 22.6 11.2 40 8.5 ESE 19 30 10 16 1018.0 1014.2 0.0
26/06:00pm 26.1 21.8 10.7 38 8.9 SE 24 33 13 18 1017.6 1013.8 0.0
26/05:30pm 26.8 22.5 10.9 37 9.2 ESE 24 32 13 17 1017.6 1013.8 0.0
26/05:00pm 27.2 23.8 11.3 37 9.3 E 20 30 11 16 1017.8 1014.0 0.0
26/04:30pm 26.6 22.3 10.7 37 9.2 E 24 35 13 19 1017.9 1014.1 0.0
26/04:00pm 28.0 26.2 12.0 37 9.5 ESE 13 28 7 15 1018.1 1014.3 0.0
26/03:30pm 27.0 22.8 11.1 37 9.3 E 24 33 13 18 1018.3 1014.5 0.0
26/03:00pm 27.9 25.3 11.9 37 9.5 E 17 28 9 15 1018.5 1014.7 0.0
26/02:30pm 27.6 24.6 12.4 39 9.1 E 20 32 11 17 1019.2 1015.4 0.0
26/02:00pm 27.1 23.5 12.0 39 8.9 ENE 22 39 12 21 1019.6 1015.8 0.0
26/01:30pm 25.5 21.9 12.0 43 7.9 E 22 33 12 18 1019.9 1016.1 0.0
26/01:00pm 26.0 22.3 13.8 47 7.4 E 26 37 14 20 1020.2 1016.5 0.0
26/12:30pm 24.0 20.7 12.9 50 6.6 E 22 35 12 19 1020.5 1016.8 0.0
26/12:00pm 25.2 22.8 14.3 50 6.6 ESE 20 39 11 21 1020.6 1016.9 0.0
26/11:30am 24.1 20.5 13.0 50 6.6 E 24 32 13 17 1020.8 1017.0 0.0
26/11:00am 23.7 20.8 14.1 55 5.8 E 22 32 12 17 1021.0 1017.2 0.0
26/10:30am 22.7 18.9 13.5 56 5.5 E 26 35 14 19 1021.1 1017.3 0.0
26/10:00am 21.9 18.6 14.0 61 4.7 E 24 39 13 21 1021.2 1017.4 0.0
26/09:30am 20.1 18.0 15.1 73 3.0 ESE 20 32 11 17 1021.0 1017.2 0.0
26/09:00am 18.8 17.3 14.3 75 2.7 SE 15 22 8 12 1020.8 1017.0 2.4
26/08:30am 17.5 17.0 14.8 84 1.6 SSE 11 15 6 8 1020.3 1016.6 2.4
26/08:00am 16.4 16.2 14.6 89 1.1 S 9 11 5 6 1020.0 1016.2 2.4
26/07:30am 15.6 15.3 14.5 93 0.6 SSW 9 15 5 8 1019.6 1015.8 2.4
26/07:00am 15.0 14.3 14.2 95 0.5 SSW 11 13 6 7 1019.2 1015.4 2.2
26/06:30am 15.6 15.2 14.1 91 0.9 SSE 9 15 5 8 1018.7 1015.0 2.2
26/06:00am 15.5 14.9 14.5 94 0.6 SSE 11 15 6 8 1018.4 1014.6 2.2
26/05:30am 15.4 15.1 14.4 94 0.6 S 9 15 5 8 1018.1 1014.3 2.2
26/05:00am 15.6 15.0 14.6 94 0.6 S 11 13 6 7 1017.8 1014.0 2.2
26/04:30am 15.5 14.4 14.4 93 0.6 S 13 15 7 8 1017.6 1013.8 2.2
26/04:00am 15.8 14.8 14.7 93 0.6 S 13 15 7 8 1017.3 1013.6 2.2
26/03:30am 15.7 15.3 14.2 91 0.9 SSE 9 13 5 7 1017.3 1013.6 2.2
26/03:00am 16.4 15.8 14.6 89 1.1 SE 11 15 6 8 1017.7 1013.9 2.2
26/02:30am 16.7 16.1 14.7 88 1.2 SSE 11 17 6 9 1018.1 1014.3 2.2
26/02:00am 16.8 16.6 14.8 88 1.2 SE 9 15 5 8 1018.3 1014.5 2.2
26/01:30am 17.2 16.7 15.0 87 1.3 SSE 11 20 6 11 1018.5 1014.7 2.2
26/01:00am 17.5 17.6 15.5 88 1.2 SE 9 19 5 10 1018.7 1015.0 2.2
26/12:30am 17.1 16.4 15.3 89 1.1 SSE 13 20 7 11 1018.2 1014.4 2.2
26/12:00am 18.1 16.3 15.5 85 1.6 SE 19 28 10 15 1018.1 1014.3 2.2
 
Date/Time
EDT
Temp
°C
App
Temp
°C
Dew
Point
°C
Rel
Hum
%
Delta-T
°C
Wind Press
QNH
hPa
Press
MSL
hPa
Rain since
9am
mm
Dir  Spd
km/h
Gust
km/h
Spd
kts
Gust
kts
25/11:30pm 18.3 18.2 16.1 87 1.3 SE 11 15 6 8 1018.4 1014.6 2.2

Other Formats:

Comma delimited format used in spreadsheet applications
http://www.bom.gov.au/fwo/IDN60801/IDN60801.95728.axf

JavaScript Object Notation format (JSON) in row-major order
http://www.bom.gov.au/fwo/IDN60801/IDN60801.95728.json